createdAt,value
2018-09-14T00:02:44.141Z,54.40
2018-09-14T00:07:47.392Z,54.10
2018-09-14T00:12:50.676Z,54.20
2018-09-14T00:17:53.940Z,54.20
2018-09-14T00:22:57.217Z,53.90
2018-09-14T00:28:00.489Z,53.90
2018-09-14T00:33:03.776Z,53.80
2018-09-14T00:38:07.057Z,53.90
2018-09-14T00:43:10.320Z,53.80
2018-09-14T00:48:13.601Z,53.90
2018-09-14T00:53:16.892Z,53.80
2018-09-14T00:58:20.136Z,54.00
2018-09-14T01:03:23.401Z,54.10
2018-09-14T01:08:26.676Z,53.90
2018-09-14T01:13:29.961Z,53.80
2018-09-14T01:18:33.444Z,53.90
2018-09-14T01:23:36.701Z,53.90
2018-09-14T01:28:39.979Z,53.80
2018-09-14T01:33:43.256Z,53.90
2018-09-14T01:38:46.508Z,53.90
2018-09-14T01:43:49.774Z,53.60
2018-09-14T01:48:53.056Z,53.90
2018-09-14T01:53:56.336Z,53.80
2018-09-14T01:58:59.540Z,54.00
2018-09-14T02:04:02.750Z,53.70
2018-09-14T02:09:07.904Z,53.60
2018-09-14T02:14:11.171Z,53.70
2018-09-14T02:19:14.437Z,53.70
2018-09-14T02:24:17.687Z,53.80
2018-09-14T02:29:20.939Z,53.40
2018-09-14T02:34:24.191Z,53.80
2018-09-14T02:39:27.444Z,53.70
2018-09-14T02:44:30.696Z,53.40
2018-09-14T02:49:33.988Z,53.70
2018-09-14T02:54:37.244Z,53.50
2018-09-14T02:59:40.487Z,54.10
2018-09-14T03:04:43.768Z,53.40
2018-09-14T03:09:47.007Z,53.40
2018-09-14T03:14:50.351Z,53.50
2018-09-14T03:19:53.593Z,53.30
2018-09-14T03:24:56.864Z,53.40
2018-09-14T03:30:00.117Z,53.30
2018-09-14T03:35:03.472Z,54.00
2018-09-14T03:40:06.737Z,53.30
2018-09-14T03:45:09.992Z,53.40
2018-09-14T03:50:13.333Z,53.00
2018-09-14T03:55:16.602Z,53.00
2018-09-14T04:00:19.864Z,52.70
2018-09-14T04:05:23.132Z,53.10
2018-09-14T04:10:26.424Z,53.30
2018-09-14T04:15:29.677Z,53.20
2018-09-14T04:20:32.955Z,53.10
2018-09-14T04:25:36.219Z,53.20
2018-09-14T04:30:39.492Z,53.00
2018-09-14T04:35:42.736Z,53.10
2018-09-14T04:40:45.976Z,53.00
2018-09-14T04:45:49.563Z,53.40
2018-09-14T04:50:52.820Z,53.30
2018-09-14T04:55:56.158Z,52.90
2018-09-14T05:00:59.417Z,53.20
2018-09-14T05:06:02.748Z,52.90
2018-09-14T05:11:06.024Z,52.80
2018-09-14T05:16:09.367Z,53.00
2018-09-14T05:21:12.651Z,52.80
2018-09-14T05:26:15.836Z,52.70
2018-09-14T05:31:19.047Z,52.90
2018-09-14T05:36:22.248Z,53.20
2018-09-14T05:41:25.495Z,53.00
2018-09-14T05:46:28.709Z,53.00
2018-09-14T05:51:31.940Z,53.10
2018-09-14T05:56:35.131Z,52.90
2018-09-14T06:01:38.636Z,53.00
2018-09-14T06:06:41.896Z,53.20
2018-09-14T06:11:45.134Z,52.90
2018-09-14T06:16:48.368Z,53.00
2018-09-14T06:21:51.840Z,53.30
2018-09-14T06:26:55.075Z,53.20
2018-09-14T06:31:58.366Z,53.80
2018-09-14T06:37:01.601Z,54.30
2018-09-14T06:42:04.830Z,53.60
2018-09-14T06:47:08.083Z,54.30
2018-09-14T06:52:11.404Z,53.80
2018-09-14T06:57:14.796Z,53.50
2018-09-14T07:02:18.032Z,53.50
2018-09-14T07:07:21.316Z,54.00
2018-09-14T07:12:24.537Z,53.90
2018-09-14T07:17:27.816Z,53.70
2018-09-14T07:22:31.220Z,54.10
2018-09-14T07:27:34.457Z,54.90
2018-09-14T07:32:37.667Z,55.10
2018-09-14T07:37:40.876Z,54.50
2018-09-14T07:42:44.069Z,54.30
2018-09-14T07:47:47.280Z,54.60
2018-09-14T07:52:50.493Z,54.80
2018-09-14T07:57:53.712Z,54.60
2018-09-14T08:02:56.940Z,55.00
2018-09-14T08:08:00.165Z,55.50
2018-09-14T08:13:03.462Z,55.00
2018-09-14T08:18:06.645Z,55.50
2018-09-14T08:23:09.856Z,55.90
2018-09-14T08:28:13.068Z,55.50
2018-09-14T08:33:16.299Z,55.40
2018-09-14T08:38:19.547Z,55.30
2018-09-14T08:43:22.745Z,55.30
2018-09-14T08:48:25.980Z,55.10
2018-09-14T08:53:29.253Z,55.70
2018-09-14T08:58:32.456Z,55.60
2018-09-14T09:03:35.713Z,56.50
2018-09-14T09:08:38.940Z,56.80
2018-09-14T09:13:42.147Z,57.00
2018-09-14T09:18:45.363Z,57.40
2018-09-14T09:23:48.627Z,57.40
2018-09-14T09:28:51.859Z,58.70
2018-09-14T09:33:55.047Z,58.50
2018-09-14T09:38:58.322Z,58.40
2018-09-14T09:44:01.564Z,58.30
2018-09-14T09:49:04.775Z,59.50
2018-09-14T09:54:08.000Z,59.70
2018-09-14T09:59:11.220Z,59.70
2018-09-14T10:04:19.969Z,60.10
2018-09-14T10:09:23.180Z,59.60
2018-09-14T10:14:26.443Z,59.60
2018-09-14T10:19:29.670Z,60.20
2018-09-14T10:24:32.921Z,60.40
2018-09-14T10:29:36.132Z,60.60
2018-09-14T10:34:39.405Z,59.80
2018-09-14T10:39:42.676Z,59.60
2018-09-14T10:44:45.881Z,59.40
2018-09-14T10:49:49.084Z,59.20
2018-09-14T10:54:52.341Z,59.00
2018-09-14T10:59:55.584Z,58.50
2018-09-14T11:04:58.806Z,58.30
2018-09-14T11:10:03.495Z,57.50
2018-09-14T11:15:06.655Z,58.30
2018-09-14T11:20:09.932Z,57.60
2018-09-14T11:25:13.171Z,57.70
2018-09-14T11:30:16.339Z,58.20
2018-09-14T11:35:19.626Z,58.00
2018-09-14T11:40:22.819Z,57.80
2018-09-14T11:45:26.089Z,58.20
2018-09-14T11:50:29.334Z,58.30
2018-09-14T11:55:32.596Z,58.10
2018-09-14T12:00:35.992Z,57.70
2018-09-14T12:05:39.334Z,57.00
2018-09-14T12:10:42.563Z,56.20
2018-09-14T12:15:45.844Z,56.60
2018-09-14T12:20:49.105Z,56.50
2018-09-14T12:25:52.383Z,55.40
2018-09-14T12:30:55.628Z,55.10
2018-09-14T12:35:58.864Z,55.10
2018-09-14T12:41:02.172Z,55.00
2018-09-14T12:46:05.488Z,56.00
2018-09-14T12:51:08.773Z,55.70
2018-09-14T12:56:12.071Z,55.20
2018-09-14T13:01:15.305Z,55.50
2018-09-14T13:06:18.552Z,55.10
2018-09-14T13:11:21.834Z,55.40
2018-09-14T13:16:25.061Z,55.00
2018-09-14T13:21:28.312Z,54.60
2018-09-14T13:26:31.576Z,54.80
2018-09-14T13:31:34.848Z,55.10
2018-09-14T13:36:38.143Z,55.00
2018-09-14T13:41:41.440Z,54.10
2018-09-14T13:46:44.692Z,53.70
2018-09-14T13:51:47.952Z,53.80
2018-09-14T13:56:51.204Z,52.60
2018-09-14T14:01:54.495Z,53.50
2018-09-14T14:06:57.751Z,52.80
2018-09-14T14:12:01.023Z,53.00
2018-09-14T14:17:04.368Z,52.90
2018-09-14T14:22:07.587Z,52.40
2018-09-14T14:27:10.851Z,52.90
2018-09-14T14:32:14.100Z,53.10
2018-09-14T14:37:17.351Z,53.40
2018-09-14T14:42:20.598Z,53.40
2018-09-14T14:47:24.979Z,53.40
2018-09-14T14:52:28.605Z,52.90
2018-09-14T14:57:33.848Z,53.60
2018-09-14T15:02:37.143Z,53.30
2018-09-14T15:07:40.386Z,53.00
2018-09-14T15:12:43.764Z,53.00
2018-09-14T15:17:47.259Z,52.80
2018-09-14T15:22:50.621Z,53.10
2018-09-14T15:27:53.939Z,52.70
2018-09-14T15:32:57.197Z,53.10
2018-09-14T15:38:00.495Z,53.00
2018-09-14T15:43:03.771Z,52.90
2018-09-14T15:48:07.052Z,52.80
2018-09-14T15:53:10.329Z,52.60
2018-09-14T15:58:13.638Z,52.90
2018-09-14T16:03:16.938Z,52.40
2018-09-14T16:08:20.252Z,53.10
2018-09-14T16:13:23.708Z,52.70
2018-09-14T16:18:27.018Z,52.60
2018-09-14T16:23:30.309Z,52.50
2018-09-14T16:28:33.561Z,52.50
2018-09-14T16:33:36.816Z,52.50
2018-09-14T16:38:40.072Z,52.10
2018-09-14T16:43:43.383Z,52.30
2018-09-14T16:48:46.672Z,52.40
2018-09-14T16:53:49.984Z,52.00
2018-09-14T16:58:53.341Z,52.10
2018-09-14T17:03:56.792Z,52.10
2018-09-14T17:09:00.520Z,51.90
2018-09-14T17:14:03.895Z,51.40
2018-09-14T17:19:07.384Z,51.60
2018-09-14T17:24:12.147Z,51.60
2018-09-14T17:29:15.441Z,51.80
2018-09-14T17:34:19.065Z,51.80
2018-09-14T17:39:22.308Z,51.90
2018-09-14T17:44:25.828Z,52.00
2018-09-14T17:49:29.047Z,51.90
2018-09-14T17:54:32.299Z,51.90
2018-09-14T17:59:35.546Z,51.90
2018-09-14T18:04:38.739Z,51.80
2018-09-14T18:09:41.958Z,51.80
2018-09-14T18:14:45.151Z,51.90
2018-09-14T18:19:48.418Z,51.80
2018-09-14T18:24:52.515Z,51.60
2018-09-14T18:29:55.738Z,51.50
2018-09-14T18:34:58.961Z,51.50
2018-09-14T18:40:02.227Z,51.50
2018-09-14T18:45:09.282Z,51.20
2018-09-14T18:50:12.570Z,51.20
2018-09-14T18:55:15.804Z,51.00
2018-09-14T19:00:19.036Z,51.10
2018-09-14T19:05:22.254Z,50.80
2018-09-14T19:10:25.533Z,50.70
2018-09-14T19:15:28.784Z,50.60
2018-09-14T19:20:32.000Z,50.50
2018-09-14T19:25:35.209Z,50.60
2018-09-14T19:30:38.412Z,50.50
2018-09-14T19:35:41.632Z,50.40
2018-09-14T19:40:44.849Z,50.40
2018-09-14T19:45:48.075Z,50.40
2018-09-14T19:50:51.396Z,50.20
2018-09-14T19:55:54.667Z,50.10
2018-09-14T20:00:58.491Z,50.10
2018-09-14T20:06:01.720Z,50.10
2018-09-14T20:11:04.948Z,50.00
2018-09-14T20:16:08.275Z,49.80
2018-09-14T20:21:11.503Z,49.90
2018-09-14T20:26:14.713Z,49.80
2018-09-14T20:31:17.911Z,49.90
2018-09-14T20:36:21.104Z,49.70
2018-09-14T20:41:24.315Z,49.70
2018-09-14T20:46:27.532Z,49.80
2018-09-14T20:51:30.837Z,49.70
2018-09-14T20:56:33.975Z,49.70
2018-09-14T21:01:37.208Z,49.60
2018-09-14T21:06:40.413Z,49.60
2018-09-14T21:11:43.624Z,49.60
2018-09-14T21:16:46.867Z,49.70
2018-09-14T21:21:50.076Z,49.50
2018-09-14T21:26:53.408Z,49.70
2018-09-14T21:31:56.641Z,49.60
2018-09-14T21:36:59.839Z,49.80
2018-09-14T21:42:03.072Z,49.60
2018-09-14T21:47:06.335Z,49.70
2018-09-14T21:52:09.593Z,49.50
2018-09-14T21:57:12.791Z,49.70
2018-09-14T22:02:16.084Z,49.70
2018-09-14T22:07:19.328Z,49.70
2018-09-14T22:12:22.617Z,49.70
2018-09-14T22:17:25.875Z,49.70
2018-09-14T22:22:29.135Z,49.90
2018-09-14T22:27:32.390Z,49.70
2018-09-14T22:32:35.661Z,50.00
2018-09-14T22:37:38.931Z,49.70
2018-09-14T22:42:42.189Z,49.60
2018-09-14T22:47:45.480Z,49.70
2018-09-14T22:52:48.724Z,49.80
2018-09-14T22:57:51.968Z,49.70
2018-09-14T23:02:55.239Z,49.90
2018-09-14T23:07:58.468Z,49.70
2018-09-14T23:13:01.729Z,50.00
2018-09-14T23:18:05.043Z,49.90
2018-09-14T23:23:08.251Z,50.00
2018-09-14T23:28:11.467Z,50.60
2018-09-14T23:33:14.703Z,50.10
2018-09-14T23:38:17.935Z,49.90
2018-09-14T23:43:21.155Z,50.00
2018-09-14T23:48:24.379Z,50.20
2018-09-14T23:53:27.581Z,50.70
2018-09-14T23:58:30.793Z,49.80
